createdAt,value
2018-10-05T00:01:36.694Z,5.30
2018-10-05T00:04:07.590Z,5.42
2018-10-05T00:06:36.990Z,5.47
2018-10-05T00:09:11.918Z,5.50
2018-10-05T00:11:41.411Z,5.40
2018-10-05T00:14:10.439Z,5.13
2018-10-05T00:16:39.635Z,4.97
2018-10-05T00:19:09.261Z,5.09
2018-10-05T00:21:38.399Z,5.19
2018-10-05T00:24:08.366Z,5.27
2018-10-05T00:26:37.514Z,5.26
2018-10-05T00:29:06.706Z,5.19
2018-10-05T00:31:35.845Z,5.07
2018-10-05T00:34:05.059Z,5.13
2018-10-05T00:36:34.987Z,5.19
2018-10-05T00:39:05.150Z,5.13
2018-10-05T00:41:34.514Z,5.05
2018-10-05T00:44:03.679Z,4.91
2018-10-05T00:46:32.851Z,4.89
2018-10-05T00:49:01.966Z,4.90
2018-10-05T00:51:31.122Z,4.82
2018-10-05T00:54:00.290Z,4.64
2018-10-05T00:56:29.538Z,4.81
2018-10-05T00:58:58.759Z,4.87
2018-10-05T01:01:28.165Z,4.81
2018-10-05T01:03:57.274Z,4.84
2018-10-05T01:06:26.420Z,4.77
2018-10-05T01:08:55.586Z,4.81
2018-10-05T01:11:24.807Z,4.70
2018-10-05T01:13:53.926Z,4.62
2018-10-05T01:16:23.074Z,4.72
2018-10-05T01:18:52.213Z,4.54
2018-10-05T01:21:21.466Z,4.51
2018-10-05T01:23:50.715Z,4.41
2018-10-05T01:26:20.022Z,4.39
2018-10-05T01:28:49.272Z,4.41
2018-10-05T01:31:18.522Z,4.45
2018-10-05T01:33:48.076Z,4.55
2018-10-05T01:36:17.865Z,4.58
2018-10-05T01:38:47.161Z,4.53
2018-10-05T01:41:16.329Z,4.46
2018-10-05T01:43:45.754Z,4.42
2018-10-05T01:46:15.183Z,4.40
2018-10-05T01:48:44.895Z,4.45
2018-10-05T01:51:14.917Z,4.47
2018-10-05T01:53:44.070Z,4.50
2018-10-05T01:56:13.242Z,4.27
2018-10-05T01:58:43.082Z,4.20
2018-10-05T02:01:12.215Z,4.04
2018-10-05T02:03:41.366Z,4.20
2018-10-05T02:06:10.650Z,4.25
2018-10-05T02:08:39.891Z,4.28
2018-10-05T02:11:09.583Z,4.11
2018-10-05T02:13:39.215Z,3.98
2018-10-05T02:16:08.750Z,3.87
2018-10-05T02:18:38.340Z,3.90
2018-10-05T02:21:07.795Z,3.91
2018-10-05T02:23:37.039Z,3.92
2018-10-05T02:26:06.395Z,3.89
2018-10-05T02:28:35.530Z,3.87
2018-10-05T02:31:04.659Z,3.74
2018-10-05T02:33:33.831Z,3.63
2018-10-05T02:36:03.467Z,3.65
2018-10-05T02:38:33.109Z,3.78
2018-10-05T02:41:02.547Z,3.70
2018-10-05T02:43:31.751Z,3.62
2018-10-05T02:46:00.868Z,3.68
2018-10-05T02:48:29.981Z,3.58
2018-10-05T02:50:59.122Z,3.55
2018-10-05T02:53:28.262Z,3.61
2018-10-05T02:55:58.854Z,3.61
2018-10-05T02:58:27.997Z,3.65
2018-10-05T03:01:14.190Z,3.51
2018-10-05T03:03:44.178Z,3.50
2018-10-05T03:06:14.085Z,3.61
2018-10-05T03:08:43.421Z,3.66
2018-10-05T03:11:12.818Z,3.52
2018-10-05T03:13:41.957Z,3.50
2018-10-05T03:16:11.193Z,3.54
2018-10-05T03:18:40.358Z,3.47
2018-10-05T03:21:09.482Z,3.53
2018-10-05T03:23:38.795Z,3.55
2018-10-05T03:26:07.962Z,3.59
2018-10-05T03:28:37.125Z,3.61
2018-10-05T03:31:07.494Z,3.57
2018-10-05T03:33:36.619Z,3.81
2018-10-05T03:36:05.734Z,4.03
2018-10-05T03:38:35.506Z,4.05
2018-10-05T03:41:04.665Z,3.91
2018-10-05T03:43:33.854Z,3.81
2018-10-05T03:46:02.978Z,3.78
2018-10-05T03:48:32.534Z,3.75
2018-10-05T03:51:01.831Z,3.79
2018-10-05T03:53:30.985Z,3.69
2018-10-05T03:56:00.242Z,3.64
2018-10-05T03:58:29.485Z,3.60
2018-10-05T04:00:58.654Z,3.51
2018-10-05T04:03:27.778Z,3.51
2018-10-05T04:05:56.998Z,3.39
2018-10-05T04:08:26.954Z,3.35
2018-10-05T04:10:56.078Z,3.47
2018-10-05T04:13:25.433Z,3.49
2018-10-05T04:15:54.719Z,3.52
2018-10-05T04:18:24.465Z,3.50
2018-10-05T04:20:53.698Z,3.42
2018-10-05T04:23:24.206Z,3.42
2018-10-05T04:25:53.772Z,3.42
2018-10-05T04:28:22.917Z,3.48
2018-10-05T04:30:52.302Z,3.67
2018-10-05T04:33:23.916Z,3.80
2018-10-05T04:35:53.036Z,3.70
2018-10-05T04:38:22.629Z,3.72
2018-10-05T04:40:51.870Z,3.95
2018-10-05T04:43:21.374Z,4.01
2018-10-05T04:45:53.554Z,4.21
2018-10-05T04:48:23.226Z,4.22
2018-10-05T04:50:52.419Z,4.22
2018-10-05T04:53:21.626Z,4.29
2018-10-05T04:55:50.741Z,4.30
2018-10-05T04:58:20.582Z,4.30
2018-10-05T05:00:49.750Z,4.13
2018-10-05T05:03:18.900Z,4.09
2018-10-05T05:05:48.210Z,3.93
2018-10-05T05:08:17.771Z,3.90
2018-10-05T05:10:49.551Z,3.79
2018-10-05T05:13:19.314Z,3.64
2018-10-05T05:15:50.118Z,3.49
2018-10-05T05:18:19.437Z,3.47
2018-10-05T05:20:48.745Z,3.44
2018-10-05T05:23:17.535Z,3.45
2018-10-05T05:25:46.746Z,3.41
2018-10-05T05:28:16.033Z,3.40
2018-10-05T05:30:44.866Z,3.27
2018-10-05T05:33:14.087Z,3.25
2018-10-05T05:35:43.638Z,3.51
2018-10-05T05:38:12.750Z,3.59
2018-10-05T05:40:44.229Z,3.69
2018-10-05T05:43:13.378Z,3.56
2018-10-05T05:45:42.518Z,3.43
2018-10-05T05:48:11.770Z,3.39
2018-10-05T05:50:40.894Z,3.69
2018-10-05T05:53:10.038Z,3.90
2018-10-05T05:55:40.454Z,3.93
2018-10-05T05:58:09.581Z,3.94
2018-10-05T06:00:39.049Z,3.95
2018-10-05T06:03:08.242Z,4.13
2018-10-05T06:05:37.366Z,4.28
2018-10-05T06:08:06.515Z,4.42
2018-10-05T06:10:35.642Z,4.39
2018-10-05T06:13:04.802Z,4.30
2018-10-05T06:15:33.925Z,4.33
2018-10-05T06:18:03.119Z,4.47
2018-10-05T06:20:32.577Z,4.65
2018-10-05T06:23:01.735Z,4.70
2018-10-05T06:25:30.933Z,4.82
2018-10-05T06:28:00.233Z,5.36
2018-10-05T06:30:29.401Z,6.13
2018-10-05T06:32:58.547Z,6.91
2018-10-05T06:35:27.661Z,7.41
2018-10-05T06:37:56.854Z,7.64
2018-10-05T06:40:26.698Z,7.68
2018-10-05T06:42:55.935Z,7.65
2018-10-05T06:45:25.114Z,7.93
2018-10-05T06:47:54.321Z,8.09
2018-10-05T06:50:23.560Z,7.99
2018-10-05T06:52:53.549Z,8.31
2018-10-05T06:55:23.046Z,8.89
2018-10-05T06:57:52.189Z,9.50
2018-10-05T07:00:21.318Z,10.30
2018-10-05T07:02:50.938Z,11.18
2018-10-05T07:05:20.479Z,11.71
2018-10-05T07:07:49.743Z,11.14
2018-10-05T07:10:18.799Z,11.94
2018-10-05T07:12:47.942Z,13.25
2018-10-05T07:15:17.079Z,13.97
2018-10-05T07:17:46.208Z,13.57
2018-10-05T07:20:15.427Z,14.26
2018-10-05T07:22:45.277Z,14.37
2018-10-05T07:25:15.041Z,14.55
2018-10-05T07:27:44.285Z,14.94
2018-10-05T07:30:14.326Z,15.55
2018-10-05T07:32:43.566Z,16.71
2018-10-05T07:35:12.985Z,17.27
2018-10-05T07:37:42.127Z,17.24
2018-10-05T07:40:11.390Z,17.76
2018-10-05T07:42:40.610Z,18.37
2018-10-05T07:45:09.742Z,19.08
2018-10-05T07:47:38.907Z,19.49
2018-10-05T07:50:08.089Z,20.75
2018-10-05T07:52:37.231Z,21.81
2018-10-05T07:55:06.354Z,21.97
2018-10-05T07:57:35.633Z,22.77
2018-10-05T08:00:04.806Z,23.03
2018-10-05T08:02:33.955Z,23.92
2018-10-05T08:05:03.654Z,25.09
2018-10-05T08:07:32.866Z,23.88
2018-10-05T08:10:02.026Z,23.93
2018-10-05T08:12:31.257Z,22.66
2018-10-05T08:15:00.406Z,23.21
2018-10-05T08:17:29.566Z,22.92
2018-10-05T08:19:58.709Z,20.50
2018-10-05T08:22:28.521Z,22.42
2018-10-05T08:24:57.676Z,22.90
2018-10-05T08:27:26.814Z,23.15
2018-10-05T08:29:56.329Z,24.76
2018-10-05T08:32:25.610Z,24.61
2018-10-05T08:34:54.730Z,24.68
2018-10-05T08:37:23.885Z,24.77
2018-10-05T08:39:53.107Z,25.88
2018-10-05T08:42:22.457Z,25.19
2018-10-05T08:44:52.577Z,22.90
2018-10-05T08:47:22.165Z,21.18
2018-10-05T08:49:51.781Z,19.78
2018-10-05T08:52:20.529Z,18.80
2018-10-05T08:54:49.653Z,22.63
2018-10-05T08:57:18.794Z,25.70
2018-10-05T08:59:47.971Z,27.61
2018-10-05T09:02:17.097Z,27.81
2018-10-05T09:04:46.338Z,28.72
2018-10-05T09:07:15.499Z,29.74
2018-10-05T09:09:44.645Z,29.00
2018-10-05T09:12:13.789Z,29.07
2018-10-05T09:14:42.922Z,28.55
2018-10-05T09:17:12.166Z,26.04
2018-10-05T09:19:41.331Z,25.41
2018-10-05T09:22:10.409Z,28.19
2018-10-05T09:24:39.530Z,28.11
2018-10-05T09:27:08.682Z,25.34
2018-10-05T09:29:38.234Z,29.77
2018-10-05T09:32:07.362Z,31.12
2018-10-05T09:34:36.484Z,32.45
2018-10-05T09:37:05.634Z,33.66
2018-10-05T09:39:34.770Z,32.39
2018-10-05T09:42:03.881Z,31.99
2018-10-05T09:44:33.101Z,33.21
2018-10-05T09:47:02.273Z,34.20
2018-10-05T09:49:31.398Z,34.24
2018-10-05T09:52:00.617Z,33.65
2018-10-05T09:54:29.725Z,34.78
2018-10-05T09:56:58.846Z,32.03
2018-10-05T09:59:28.250Z,33.06
2018-10-05T10:02:02.851Z,34.15
2018-10-05T10:04:31.989Z,33.35
2018-10-05T10:07:01.122Z,32.90
2018-10-05T10:09:30.270Z,31.81
2018-10-05T10:11:59.405Z,32.62
2018-10-05T10:14:28.539Z,33.22
2018-10-05T10:16:57.670Z,35.30
2018-10-05T10:19:26.858Z,37.38
2018-10-05T10:21:55.969Z,39.14
2018-10-05T10:24:25.303Z,39.89
2018-10-05T10:26:54.642Z,38.53
2018-10-05T10:29:23.824Z,38.63
2018-10-05T10:31:52.962Z,40.12
2018-10-05T10:34:22.150Z,41.45
2018-10-05T10:36:51.333Z,42.66
2018-10-05T10:39:20.494Z,43.86
2018-10-05T10:41:49.674Z,44.06
2018-10-05T10:44:18.861Z,43.34
2018-10-05T10:46:48.015Z,40.77
2018-10-05T10:49:17.211Z,42.05
2018-10-05T10:51:46.571Z,42.09
2018-10-05T10:54:15.770Z,42.85
2018-10-05T10:56:45.366Z,40.60
2018-10-05T10:59:14.513Z,43.19
2018-10-05T11:01:43.705Z,43.23
2018-10-05T11:04:12.841Z,42.19
2018-10-05T11:06:42.191Z,39.78
2018-10-05T11:09:11.385Z,39.57
2018-10-05T11:11:40.497Z,34.97
2018-10-05T11:14:09.654Z,30.43
2018-10-05T11:16:38.822Z,30.24
2018-10-05T11:19:10.219Z,31.19
2018-10-05T11:21:39.366Z,36.09
2018-10-05T11:24:08.834Z,37.21
2018-10-05T11:26:38.018Z,35.30
2018-10-05T11:29:07.127Z,37.23
2018-10-05T11:31:36.269Z,38.04
2018-10-05T11:34:05.417Z,40.46
2018-10-05T11:36:35.246Z,42.58
2018-10-05T11:39:05.157Z,43.05
2018-10-05T11:41:35.054Z,42.02
2018-10-05T11:44:06.038Z,41.10
2018-10-05T11:46:35.531Z,42.33
2018-10-05T11:49:05.886Z,43.06
2018-10-05T11:51:35.473Z,34.95
2018-10-05T11:54:04.634Z,33.80
2018-10-05T11:56:33.765Z,30.79
2018-10-05T11:59:02.622Z,34.88
2018-10-05T12:01:32.777Z,39.06
2018-10-05T12:04:01.926Z,41.56
2018-10-05T12:06:32.590Z,40.42
2018-10-05T12:09:01.399Z,36.46
2018-10-05T12:11:30.549Z,37.03
2018-10-05T12:13:59.706Z,39.00
2018-10-05T12:16:29.473Z,40.12
2018-10-05T12:18:59.027Z,37.21
2018-10-05T12:21:28.830Z,39.99
2018-10-05T12:23:58.806Z,40.40
2018-10-05T12:26:28.824Z,42.47
2018-10-05T12:28:57.592Z,43.37
2018-10-05T12:31:26.713Z,40.34
2018-10-05T12:33:58.121Z,35.88
2018-10-05T12:36:27.258Z,38.02
2018-10-05T12:38:56.390Z,34.85
2018-10-05T12:41:25.653Z,30.84
2018-10-05T12:43:54.845Z,26.26
2018-10-05T12:46:24.010Z,24.08
2018-10-05T12:48:53.417Z,23.52
2018-10-05T12:51:22.990Z,22.45
2018-10-05T12:53:53.846Z,22.03
2018-10-05T12:56:23.471Z,21.89
2018-10-05T12:58:53.403Z,21.44
2018-10-05T13:01:22.529Z,21.23
2018-10-05T13:03:51.685Z,21.03
2018-10-05T13:06:20.568Z,20.89
2018-10-05T13:08:49.966Z,20.81
2018-10-05T13:11:20.226Z,20.73
2018-10-05T13:13:49.350Z,20.68
2018-10-05T13:16:18.914Z,20.48
2018-10-05T13:18:48.070Z,20.65
2018-10-05T13:21:17.154Z,20.54
2018-10-05T13:23:46.386Z,20.60
2018-10-05T13:26:15.742Z,20.66
2018-10-05T13:28:46.807Z,20.72
2018-10-05T13:31:16.565Z,20.78
2018-10-05T13:33:45.738Z,20.74
2018-10-05T13:36:15.692Z,20.75
2018-10-05T13:38:45.608Z,20.73
2018-10-05T13:41:14.869Z,20.67
2018-10-05T13:43:44.638Z,20.64
2018-10-05T13:46:14.451Z,20.60
2018-10-05T13:48:43.694Z,20.65
2018-10-05T13:51:13.378Z,20.64
2018-10-05T13:53:42.639Z,20.80
2018-10-05T13:56:11.546Z,20.80
2018-10-05T13:58:40.698Z,20.82
2018-10-05T14:01:10.094Z,20.80
2018-10-05T14:03:39.246Z,20.84
2018-10-05T14:06:08.550Z,20.84
2018-10-05T14:08:37.718Z,20.88
2018-10-05T14:11:07.125Z,20.77
2018-10-05T14:13:37.014Z,20.89
2018-10-05T14:16:06.917Z,20.92
2018-10-05T14:18:35.030Z,20.97
2018-10-05T14:21:04.190Z,21.00
2018-10-05T14:23:33.375Z,21.10
2018-10-05T14:26:02.498Z,20.94
2018-10-05T14:28:31.747Z,20.90
2018-10-05T14:31:00.398Z,21.03
2018-10-05T14:33:29.534Z,20.98
2018-10-05T14:35:58.661Z,20.94
2018-10-05T14:38:27.778Z,20.95
2018-10-05T14:40:56.935Z,20.93
2018-10-05T14:43:26.054Z,20.87
2018-10-05T14:45:55.304Z,20.92
2018-10-05T14:48:26.338Z,20.86
2018-10-05T14:50:55.506Z,20.75
2018-10-05T14:53:24.842Z,20.79
2018-10-05T14:55:53.971Z,20.75
2018-10-05T14:58:23.291Z,20.74
2018-10-05T15:00:53.098Z,20.69
2018-10-05T15:03:23.810Z,20.58
2018-10-05T15:05:52.977Z,20.59
2018-10-05T15:08:22.562Z,20.66
2018-10-05T15:10:51.826Z,20.68
2018-10-05T15:13:26.042Z,20.58
2018-10-05T15:15:55.277Z,20.46
2018-10-05T15:18:24.954Z,20.65
2018-10-05T15:20:54.667Z,20.54
2018-10-05T15:23:23.985Z,20.46
2018-10-05T15:25:53.767Z,20.36
2018-10-05T15:28:25.210Z,20.21
2018-10-05T15:30:54.585Z,20.11
2018-10-05T15:33:24.446Z,20.05
2018-10-05T15:35:54.309Z,20.01
2018-10-05T15:38:23.662Z,20.03
2018-10-05T15:40:53.393Z,19.82
2018-10-05T15:43:23.742Z,19.78
2018-10-05T15:46:08.515Z,19.86
2018-10-05T15:48:37.958Z,20.06
2018-10-05T15:51:07.726Z,19.85
2018-10-05T15:53:37.734Z,19.68
2018-10-05T15:56:07.566Z,19.55
2018-10-05T15:58:40.828Z,19.34
2018-10-05T16:01:09.966Z,19.33
2018-10-05T16:03:39.330Z,19.33
2018-10-05T16:06:08.990Z,19.10
2018-10-05T16:08:38.372Z,18.90
2018-10-05T16:11:07.902Z,18.74
2018-10-05T16:13:37.950Z,18.54
2018-10-05T16:16:07.854Z,18.42
2018-10-05T16:18:38.046Z,18.42
2018-10-05T16:21:07.613Z,18.31
2018-10-05T16:23:37.538Z,18.22
2018-10-05T16:26:07.058Z,18.02
2018-10-05T16:28:36.536Z,17.87
2018-10-05T16:31:06.545Z,17.79
2018-10-05T16:33:35.801Z,17.79
2018-10-05T16:36:05.822Z,17.84
2018-10-05T16:38:35.723Z,17.67
2018-10-05T16:41:05.186Z,17.67
2018-10-05T16:43:34.568Z,17.70
2018-10-05T16:46:03.305Z,17.79
2018-10-05T16:48:32.474Z,17.61
2018-10-05T16:51:01.603Z,17.40
2018-10-05T16:53:31.342Z,17.32
2018-10-05T16:56:00.538Z,17.26
2018-10-05T16:58:31.394Z,17.19
2018-10-05T17:01:00.515Z,17.04
2018-10-05T17:03:29.684Z,16.74
2018-10-05T17:05:59.060Z,16.58
2018-10-05T17:08:29.755Z,16.30
2018-10-05T17:10:59.078Z,16.17
2018-10-05T17:13:28.386Z,15.91
2018-10-05T17:15:57.569Z,15.75
2018-10-05T17:18:26.788Z,15.69
2018-10-05T17:20:55.977Z,15.60
2018-10-05T17:23:25.568Z,15.44
2018-10-05T17:25:54.660Z,15.22
2018-10-05T17:28:24.363Z,15.29
2018-10-05T17:30:54.246Z,15.28
2018-10-05T17:33:23.665Z,15.32
2018-10-05T17:35:53.124Z,15.12
2018-10-05T17:38:22.673Z,15.05
2018-10-05T17:40:51.577Z,14.96
2018-10-05T17:43:20.710Z,14.97
2018-10-05T17:45:49.833Z,14.87
2018-10-05T17:48:18.978Z,14.81
2018-10-05T17:50:48.114Z,14.73
2018-10-05T17:53:17.233Z,14.63
2018-10-05T17:55:46.416Z,14.43
2018-10-05T17:58:17.914Z,14.21
2018-10-05T18:00:48.691Z,14.04
2018-10-05T18:03:18.637Z,13.85
2018-10-05T18:05:48.449Z,13.59
2018-10-05T18:08:17.918Z,13.71
2018-10-05T18:10:47.202Z,13.67
2018-10-05T18:13:16.577Z,13.56
2018-10-05T18:15:48.183Z,13.57
2018-10-05T18:18:18.481Z,13.85
2018-10-05T18:20:48.030Z,13.69
2018-10-05T18:23:17.503Z,13.61
2018-10-05T18:25:47.042Z,13.63
2018-10-05T18:28:16.488Z,13.73
2018-10-05T18:30:45.746Z,13.79
2018-10-05T18:33:15.062Z,13.62
2018-10-05T18:35:44.198Z,13.36
2018-10-05T18:38:14.058Z,13.21
2018-10-05T18:40:44.061Z,13.21
2018-10-05T18:43:13.346Z,13.12
2018-10-05T18:45:42.846Z,13.10
2018-10-05T18:48:11.991Z,13.04
2018-10-05T18:50:41.135Z,13.13
2018-10-05T18:53:10.266Z,13.23
2018-10-05T18:55:39.598Z,13.31
2018-10-05T18:58:09.774Z,13.22
2018-10-05T19:00:39.263Z,13.28
2018-10-05T19:03:08.935Z,13.29
2018-10-05T19:05:38.257Z,13.35
2018-10-05T19:08:08.101Z,13.37
2018-10-05T19:10:39.029Z,13.38
2018-10-05T19:13:08.472Z,13.13
2018-10-05T19:15:39.137Z,12.86
2018-10-05T19:18:08.723Z,12.76
2018-10-05T19:20:38.174Z,12.68
2018-10-05T19:23:07.062Z,12.71
2018-10-05T19:25:36.242Z,12.58
2018-10-05T19:28:05.479Z,12.38
2018-10-05T19:30:34.978Z,12.24
2018-10-05T19:33:04.483Z,12.34
2018-10-05T19:35:33.374Z,12.50
2018-10-05T19:38:02.810Z,12.64
2018-10-05T19:40:31.550Z,12.62
2018-10-05T19:43:00.678Z,12.67
2018-10-05T19:45:30.233Z,12.74
2018-10-05T19:48:03.554Z,12.65
2018-10-05T19:50:33.709Z,12.59
2018-10-05T19:53:03.010Z,12.48
2018-10-05T19:55:32.338Z,12.29
2018-10-05T19:58:01.478Z,12.24
2018-10-05T20:00:31.402Z,12.27
2018-10-05T20:03:00.530Z,12.18
2018-10-05T20:05:29.909Z,12.25
2018-10-05T20:07:59.433Z,12.25
2018-10-05T20:10:31.075Z,12.26
2018-10-05T20:13:01.018Z,12.35
2018-10-05T20:15:30.438Z,12.37
2018-10-05T20:18:00.129Z,12.22
2018-10-05T20:20:29.289Z,12.15
2018-10-05T20:22:59.122Z,11.92
2018-10-05T20:25:28.373Z,11.81
2018-10-05T20:27:58.129Z,11.71
2018-10-05T20:30:27.423Z,11.68
2018-10-05T20:32:57.198Z,11.70
2018-10-05T20:35:27.066Z,11.62
2018-10-05T20:37:56.318Z,11.56
2018-10-05T20:40:25.581Z,11.57
2018-10-05T20:42:55.078Z,11.35
2018-10-05T20:45:24.970Z,11.26
2018-10-05T20:47:54.238Z,11.29
2018-10-05T20:50:23.830Z,11.37
2018-10-05T20:52:53.469Z,11.44
2018-10-05T20:55:23.850Z,11.45
2018-10-05T20:57:53.019Z,11.38
2018-10-05T21:00:22.807Z,11.30
2018-10-05T21:02:51.957Z,11.31
2018-10-05T21:05:21.430Z,11.33
2018-10-05T21:07:50.929Z,11.24
2018-10-05T21:10:20.129Z,11.25
2018-10-05T21:12:50.758Z,11.25
2018-10-05T21:15:20.652Z,11.30
2018-10-05T21:17:50.187Z,11.26
2018-10-05T21:20:19.557Z,11.11
2018-10-05T21:22:49.728Z,11.05
2018-10-05T21:25:19.991Z,11.00
2018-10-05T21:27:49.590Z,11.18
2018-10-05T21:30:18.929Z,11.36
2018-10-05T21:32:48.545Z,11.29
2018-10-05T21:35:17.851Z,11.23
2018-10-05T21:37:46.878Z,11.32
2018-10-05T21:40:16.166Z,11.43
2018-10-05T21:42:45.395Z,11.46
2018-10-05T21:45:14.773Z,11.56
2018-10-05T21:47:44.702Z,11.45
2018-10-05T21:50:14.270Z,11.23
2018-10-05T21:52:43.730Z,11.03
2018-10-05T21:55:13.047Z,11.00
2018-10-05T21:57:42.366Z,10.86
2018-10-05T22:00:11.666Z,10.71
2018-10-05T22:02:43.438Z,10.72
2018-10-05T22:05:12.853Z,10.92
2018-10-05T22:07:42.217Z,11.01
2018-10-05T22:10:12.058Z,11.06
2018-10-05T22:12:41.426Z,11.05
2018-10-05T22:15:10.818Z,10.98
2018-10-05T22:17:40.459Z,10.95
2018-10-05T22:20:10.456Z,10.71
2018-10-05T22:22:39.817Z,10.55
2018-10-05T22:25:09.194Z,10.47
2018-10-05T22:27:39.281Z,10.51
2018-10-05T22:30:09.463Z,10.58
2018-10-05T22:32:39.115Z,10.63
2018-10-05T22:35:09.366Z,10.54
2018-10-05T22:37:38.942Z,10.24
2018-10-05T22:40:08.290Z,10.25
2018-10-05T22:42:37.640Z,10.29
2018-10-05T22:45:07.853Z,10.34
2018-10-05T22:47:37.837Z,10.37
2018-10-05T22:50:07.114Z,10.24
2018-10-05T22:52:36.181Z,10.03
2018-10-05T22:55:05.580Z,9.92
2018-10-05T22:57:35.027Z,9.85
2018-10-05T23:00:05.309Z,9.99
2018-10-05T23:02:37.670Z,10.05
2018-10-05T23:05:07.454Z,9.95
2018-10-05T23:07:36.623Z,9.85
2018-10-05T23:10:06.739Z,9.76
2018-10-05T23:12:36.518Z,9.77
2018-10-05T23:15:06.421Z,9.79
2018-10-05T23:17:35.550Z,10.04
2018-10-05T23:20:05.013Z,10.14
2018-10-05T23:22:34.401Z,10.17
2018-10-05T23:25:03.983Z,10.15
2018-10-05T23:27:33.870Z,10.02
2018-10-05T23:30:03.234Z,9.73
2018-10-05T23:32:32.872Z,9.76
2018-10-05T23:35:02.030Z,9.80
2018-10-05T23:37:31.172Z,9.83
2018-10-05T23:40:01.046Z,9.65
2018-10-05T23:42:30.206Z,9.53
2018-10-05T23:45:00.485Z,9.51
2018-10-05T23:47:29.853Z,9.69
2018-10-05T23:49:59.089Z,9.78
2018-10-05T23:52:51.858Z,9.78
2018-10-05T23:55:21.862Z,9.67
2018-10-05T23:57:51.789Z,9.53
